Time;durP1;ratioP1;P1;durP2;ratioP2;P2;SDS_P1;SDS_P2;PMS_P1;PMS_P2;Temp;Humidity;BMP_temperature;BMP_pressure;BME280_temperature;BME280_humidity;BME280_pressure;Samples;Min_cycle;Max_cycle;Signal;HPM_P1;HPM_P2
2021/04/21 00:02:14;;;;;;;10.85;5.53;;;6.40;97.80;;;;;;5029230;28;20056;-69
2021/04/21 00:04:44;;;;;;;8.63;6.07;;;6.50;97.90;;;;;;5031135;28;20045;-70
2021/04/21 00:07:11;;;;;;;11.82;6.97;;;6.40;97.90;;;;;;5030535;28;20044;-69
2021/04/21 00:09:37;;;;;;;12.68;6.40;;;6.40;97.90;;;;;;5028818;28;20033;-71
2021/04/21 00:12:03;;;;;;;10.50;6.35;;;6.40;98.30;;;;;;5029662;28;20069;-70
2021/04/21 00:14:29;;;;;;;11.90;6.20;;;6.40;98.50;;;;;;5025895;28;20159;-70
2021/04/21 00:16:59;;;;;;;12.20;5.68;;;6.40;98.50;;;;;;5030863;28;20112;-70
2021/04/21 00:19:26;;;;;;;12.02;6.28;;;6.40;98.40;;;;;;5028988;28;20045;-69
2021/04/21 00:21:55;;;;;;;7.60;5.93;;;6.30;98.50;;;;;;5030510;28;20368;-70
2021/04/21 00:24:22;;;;;;;9.32;6.10;;;6.30;98.40;;;;;;5029921;28;20487;-70
2021/04/21 00:26:49;;;;;;;7.38;6.18;;;6.10;98.60;;;;;;5031341;28;20046;-70
2021/04/21 00:29:17;;;;;;;12.65;6.28;;;6.00;99.00;;;;;;5029972;28;20044;-70
2021/04/21 00:31:45;;;;;;;7.13;4.75;;;5.90;99.60;;;;;;5030371;28;20048;-70
2021/04/21 00:34:12;;;;;;;10.05;6.10;;;5.80;98.90;;;;;;5027149;28;20036;-70
2021/04/21 00:36:41;;;;;;;9.93;6.65;;;5.80;98.80;;;;;;5028682;28;20033;-70
2021/04/21 00:39:09;;;;;;;10.27;5.90;;;5.90;99.00;;;;;;5027924;28;20064;-70
2021/04/21 00:41:46;;;;;;;9.13;5.97;;;5.90;99.10;;;;;;5028392;28;20084;-71
2021/04/21 00:44:40;;;;;;;9.25;7.10;;;5.90;99.20;;;;;;5028803;28;20035;-70
2021/04/21 00:47:08;;;;;;;10.82;6.57;;;5.90;99.20;;;;;;5029759;28;20096;-70
2021/04/21 00:49:57;;;;;;;7.05;6.28;;;5.90;99.30;;;;;;5030312;28;20049;-70
2021/04/21 00:52:49;;;;;;;9.63;6.68;;;5.80;99.30;;;;;;5027458;28;20094;-70
2021/04/21 00:55:32;;;;;;;10.88;6.57;;;5.80;99.40;;;;;;5029591;28;20123;-70
2021/04/21 00:58:21;;;;;;;14.55;7.22;;;5.80;99.60;;;;;;5026666;28;20040;-70
2021/04/21 01:00:47;;;;;;;8.52;5.85;;;5.60;99.50;;;;;;5028069;28;20045;-70
2021/04/21 01:03:18;;;;;;;8.32;5.63;;;5.60;99.40;;;;;;5027763;28;20578;-70
2021/04/21 01:05:56;;;;;;;7.00;5.13;;;5.60;99.20;;;;;;5027404;28;20045;-70
2021/04/21 01:08:26;;;;;;;11.27;5.75;;;5.60;99.10;;;;;;5025915;28;20030;-73
2021/04/21 01:11:02;;;;;;;8.85;6.40;;;5.50;99.00;;;;;;5026148;28;20052;-70
2021/04/21 01:13:36;;;;;;;8.15;6.22;;;5.50;99.10;;;;;;5024891;28;20048;-70
2021/04/21 01:16:04;;;;;;;11.23;7.03;;;5.50;99.20;;;;;;5034401;28;20603;-70
2021/04/21 01:18:33;;;;;;;8.77;5.43;;;5.50;99.70;;;;;;5027504;28;20044;-70
2021/04/21 01:21:33;;;;;;;6.78;5.38;;;5.50;99.70;;;;;;5025401;28;20045;-70
2021/04/21 01:24:11;;;;;;;9.00;6.82;;;5.50;99.60;;;;;;5024102;28;20048;-71
2021/04/21 01:27:02;;;;;;;7.32;6.40;;;5.50;99.80;;;;;;5026331;28;20041;-71
2021/04/21 01:29:41;;;;;;;12.65;6.78;;;5.40;99.80;;;;;;5027249;28;20120;-71
2021/04/21 01:32:35;;;;;;;8.48;7.20;;;5.50;99.80;;;;;;5028831;28;20036;-70
2021/04/21 01:35:03;;;;;;;10.63;6.55;;;5.50;99.80;;;;;;5031750;28;20079;-70
2021/04/21 01:37:33;;;;;;;8.00;6.68;;;5.40;99.70;;;;;;5029116;28;20124;-71
2021/04/21 01:40:05;;;;;;;10.82;7.03;;;5.40;99.90;;;;;;5025887;28;20041;-70
2021/04/21 01:42:34;;;;;;;14.85;7.38;;;5.40;99.90;;;;;;5030014;28;20045;-71
2021/04/21 01:45:01;;;;;;;10.68;7.22;;;5.40;99.90;;;;;;5031384;28;20041;-70
2021/04/21 01:47:28;;;;;;;12.88;6.68;;;5.40;99.90;;;;;;5031309;28;20073;-70
2021/04/21 01:50:05;;;;;;;12.35;5.82;;;5.40;99.90;;;;;;5032010;28;20045;-70
2021/04/21 01:52:37;;;;;;;9.63;7.00;;;5.40;99.90;;;;;;5025122;28;20160;-69
2021/04/21 01:55:21;;;;;;;12.85;6.50;;;5.40;99.90;;;;;;5029301;28;20079;-71
2021/04/21 01:57:57;;;;;;;8.35;6.75;;;5.40;99.90;;;;;;5026498;28;20037;-70
2021/04/21 02:00:31;;;;;;;16.48;7.72;;;5.40;99.90;;;;;;5026526;28;20045;-70
2021/04/21 02:03:21;;;;;;;12.48;7.25;;;5.40;99.90;;;;;;5026996;28;20041;-70
2021/04/21 02:06:27;;;;;;;11.05;7.32;;;5.40;99.90;;;;;;5022095;28;20045;-71
2021/04/21 02:09:02;;;;;;;10.70;7.20;;;5.30;99.90;;;;;;5027948;28;20041;-70
2021/04/21 02:11:31;;;;;;;13.27;8.43;;;5.20;99.90;;;;;;5026004;28;20103;-70
2021/04/21 02:14:32;;;;;;;14.75;8.20;;;5.30;99.90;;;;;;5021428;28;20132;-71
2021/04/21 02:17:25;;;;;;;8.10;6.78;;;5.30;99.90;;;;;;5024266;28;20096;-71
2021/04/21 02:20:10;;;;;;;13.18;8.35;;;5.20;99.90;;;;;;5028168;28;20055;-71
2021/04/21 02:22:47;;;;;;;10.98;7.78;;;5.20;99.90;;;;;;5028371;28;20045;-70
2021/04/21 02:25:46;;;;;;;26.05;9.40;;;5.70;99.90;;;;;;5026140;28;20056;-70
2021/04/21 02:28:32;;;;;;;10.60;7.55;;;5.20;99.90;;;;;;5006648;28;20115;-71
2021/04/21 02:31:12;;;;;;;10.55;8.50;;;5.20;99.90;;;;;;5026256;28;20404;-70
2021/04/21 02:33:47;;;;;;;14.00;8.57;;;5.30;99.90;;;;;;5028002;28;20088;-71
2021/04/21 02:36:27;;;;;;;12.82;8.00;;;5.30;99.90;;;;;;5028464;28;20076;-70
2021/04/21 02:39:02;;;;;;;10.77;7.82;;;5.30;99.90;;;;;;5027283;28;20424;-71
2021/04/21 02:41:57;;;;;;;13.48;8.52;;;5.30;99.90;;;;;;5027368;28;20081;-71
2021/04/21 02:44:30;;;;;;;10.82;7.57;;;5.30;99.90;;;;;;5026090;28;20045;-71
2021/04/21 02:47:30;;;;;;;8.52;7.68;;;5.30;99.90;;;;;;5028052;28;20068;-71
2021/04/21 02:50:12;;;;;;;9.68;7.68;;;5.30;99.90;;;;;;5025766;28;20116;-71
2021/04/21 02:53:02;;;;;;;8.25;7.40;;;5.20;99.90;;;;;;5023538;28;20073;-70
2021/04/21 02:55:51;;;;;;;14.57;7.95;;;5.20;99.90;;;;;;5029073;28;20029;-70
2021/04/21 02:58:39;;;;;;;11.65;7.95;;;5.30;99.90;;;;;;5023828;28;20110;-72
2021/04/21 03:01:12;;;;;;;8.63;6.82;;;5.20;99.90;;;;;;5023044;28;20048;-71
2021/04/21 03:03:49;;;;;;;14.25;8.02;;;5.30;99.90;;;;;;5028985;28;20033;-71
2021/04/21 03:06:29;;;;;;;9.32;7.65;;;5.30;99.90;;;;;;5025496;28;20344;-70
2021/04/21 03:09:11;;;;;;;12.27;7.50;;;5.20;99.90;;;;;;5025374;28;20041;-71
2021/04/21 03:11:37;;;;;;;11.77;7.90;;;5.20;99.90;;;;;;5027133;28;20464;-72
2021/04/21 03:14:20;;;;;;;12.13;8.15;;;5.00;99.90;;;;;;5027421;28;20119;-71
2021/04/21 03:16:52;;;;;;;12.15;8.18;;;5.10;99.90;;;;;;5026938;28;20046;-71
2021/04/21 03:19:23;;;;;;;10.23;7.88;;;5.00;99.90;;;;;;5023451;28;20053;-71
2021/04/21 03:21:58;;;;;;;11.75;7.55;;;5.00;99.90;;;;;;5025866;28;20072;-71
2021/04/21 03:24:37;;;;;;;13.65;9.30;;;5.00;99.90;;;;;;5030229;28;20099;-70
2021/04/21 03:27:06;;;;;;;13.30;8.95;;;5.10;99.90;;;;;;5030980;28;20676;-70
2021/04/21 03:29:47;;;;;;;11.15;9.43;;;5.00;99.90;;;;;;5030075;28;20139;-71
2021/04/21 03:32:36;;;;;;;11.93;10.25;;;5.00;99.90;;;;;;5027235;28;20041;-70
2021/04/21 03:35:03;;;;;;;12.52;9.38;;;5.00;99.90;;;;;;5028160;28;20108;-73
2021/04/21 03:37:40;;;;;;;13.60;11.00;;;5.10;99.90;;;;;;5030875;28;20061;-72
2021/04/21 03:40:06;;;;;;;13.55;10.40;;;5.10;99.90;;;;;;5029469;28;20052;-71
2021/04/21 03:42:33;;;;;;;11.35;9.60;;;5.10;99.90;;;;;;5030956;28;20067;-71
2021/04/21 03:45:03;;;;;;;12.27;10.15;;;5.10;99.90;;;;;;5031593;28;20053;-71
2021/04/21 03:47:29;;;;;;;10.90;9.80;;;5.00;99.90;;;;;;5031432;28;20041;-70
2021/04/21 03:49:56;;;;;;;10.63;9.52;;;4.90;99.90;;;;;;5029772;28;20129;-71
2021/04/21 03:52:26;;;;;;;10.55;9.35;;;4.90;99.90;;;;;;5031324;28;20140;-71
2021/04/21 03:54:55;;;;;;;12.65;10.27;;;4.90;99.90;;;;;;5036091;28;20041;-68
2021/04/21 03:57:24;;;;;;;12.10;10.90;;;4.80;99.90;;;;;;5031824;28;20503;-71
2021/04/21 03:59:52;;;;;;;21.55;13.70;;;4.80;99.90;;;;;;5027484;28;20046;-70
2021/04/21 04:02:20;;;;;;;17.45;12.63;;;4.80;99.90;;;;;;5025562;28;20063;-71
2021/04/21 04:04:51;;;;;;;17.85;13.38;;;4.80;99.90;;;;;;5033132;28;20781;-70
2021/04/21 04:07:20;;;;;;;13.40;11.38;;;4.80;99.90;;;;;;5028163;28;20200;-71
2021/04/21 04:09:47;;;;;;;20.45;12.15;;;4.80;99.90;;;;;;5030193;28;20499;-71
2021/04/21 04:12:15;;;;;;;22.50;13.75;;;4.80;99.90;;;;;;5027070;28;20069;-71
2021/04/21 04:14:41;;;;;;;14.98;13.40;;;4.80;99.90;;;;;;5030500;28;20037;-71
2021/04/21 04:17:09;;;;;;;19.48;14.73;;;4.80;99.90;;;;;;5030966;28;20046;-72
2021/04/21 04:19:38;;;;;;;21.27;16.67;;;4.80;99.90;;;;;;5030713;28;20095;-71
2021/04/21 04:22:07;;;;;;;16.17;14.48;;;4.70;99.90;;;;;;5030276;28;20045;-70
2021/04/21 04:24:44;;;;;;;17.15;14.27;;;4.70;99.90;;;;;;5029672;28;20038;-71
2021/04/21 04:27:20;;;;;;;16.90;14.52;;;4.70;99.90;;;;;;5029870;28;20042;-71
2021/04/21 04:29:47;;;;;;;17.17;14.98;;;4.80;99.90;;;;;;5028034;28;20040;-71
2021/04/21 04:32:16;;;;;;;21.83;14.98;;;4.80;99.90;;;;;;5029004;28;20123;-71
2021/04/21 04:34:47;;;;;;;21.67;14.90;;;4.90;99.90;;;;;;5029731;28;20399;-72
2021/04/21 04:37:15;;;;;;;15.73;13.98;;;4.90;99.90;;;;;;5021989;28;20491;-71
2021/04/21 04:39:41;;;;;;;20.15;14.95;;;5.00;99.90;;;;;;5025878;28;20041;-72
2021/04/21 04:42:09;;;;;;;17.02;13.18;;;5.10;99.90;;;;;;5019446;28;20041;-71
2021/04/21 04:44:41;;;;;;;18.65;13.43;;;5.10;99.90;;;;;;5022147;28;20041;-72
2021/04/21 04:47:20;;;;;;;12.60;11.30;;;5.10;99.90;;;;;;5025252;28;20757;-71
2021/04/21 04:50:09;;;;;;;13.65;10.50;;;5.10;99.90;;;;;;5024623;28;20041;-71
2021/04/21 04:52:39;;;;;;;16.20;10.50;;;5.00;99.90;;;;;;5023241;28;20037;-71
2021/04/21 04:55:08;;;;;;;13.07;11.02;;;4.90;99.90;;;;;;5022025;28;20502;-72
2021/04/21 04:57:40;;;;;;;14.20;10.20;;;4.90;99.90;;;;;;5025549;28;20037;-71
2021/04/21 05:00:09;;;;;;;11.85;10.63;;;4.90;99.90;;;;;;5023521;28;20037;-71
2021/04/21 05:02:57;;;;;;;11.45;9.93;;;5.00;99.90;;;;;;5025125;28;20045;-71
2021/04/21 05:05:24;;;;;;;14.55;11.75;;;5.00;99.90;;;;;;5023245;28;20037;-71
2021/04/21 05:08:00;;;;;;;17.58;12.18;;;5.20;99.90;;;;;;5020927;28;20715;-71
2021/04/21 05:10:28;;;;;;;13.75;12.35;;;5.40;99.90;;;;;;5025241;28;20774;-72
2021/04/21 05:12:58;;;;;;;15.18;11.10;;;5.70;99.90;;;;;;5023990;28;20086;-72
2021/04/21 05:15:39;;;;;;;13.38;12.00;;;6.00;99.90;;;;;;5020748;28;20133;-71
2021/04/21 05:18:10;;;;;;;13.32;10.23;;;6.30;99.90;;;;;;5024394;28;20491;-71
2021/04/21 05:21:00;;;;;;;10.95;9.40;;;6.70;99.90;;;;;;5022793;28;20041;-71
2021/04/21 05:24:11;;;;;;;11.65;9.15;;;7.40;99.10;;;;;;5023354;28;20048;-72
2021/04/21 05:26:52;;;;;;;12.32;10.50;;;8.10;96.80;;;;;;5021992;28;20045;-72
2021/04/21 05:29:29;;;;;;;11.27;8.80;;;8.10;96.70;;;;;;5022430;28;20119;-72
2021/04/21 05:32:33;;;;;;;12.27;10.63;;;8.20;96.90;;;;;;5024618;28;20033;-72
2021/04/21 05:35:07;;;;;;;17.42;11.35;;;8.30;96.70;;;;;;5022579;28;20030;-72
2021/04/21 05:37:54;;;;;;;14.00;12.60;;;8.00;97.10;;;;;;5025675;28;20037;-72
2021/04/21 05:40:55;;;;;;;15.18;12.02;;;7.80;97.70;;;;;;5025142;28;20649;-72
2021/04/21 05:43:54;;;;;;;22.40;13.38;;;7.80;98.50;;;;;;5023580;28;20499;-72
2021/04/21 05:46:45;;;;;;;14.45;12.93;;;7.80;98.50;;;;;;5020208;28;20043;-72
2021/04/21 05:49:35;;;;;;;14.10;11.30;;;8.00;98.30;;;;;;5023171;28;20041;-73
2021/04/21 05:52:23;;;;;;;15.32;11.05;;;8.20;98.30;;;;;;5022333;28;20038;-72
2021/04/21 05:55:07;;;;;;;12.68;10.68;;;8.50;97.60;;;;;;5023436;28;20099;-72
2021/04/21 05:58:10;;;;;;;11.60;10.02;;;9.10;97.70;;;;;;5025428;28;20052;-72
2021/04/21 06:00:57;;;;;;;12.75;9.45;;;10.30;96.20;;;;;;5021853;28;20056;-72
2021/04/21 06:03:24;;;;;;;13.77;10.15;;;11.90;94.90;;;;;;5023010;28;20042;-73
2021/04/21 06:05:49;;;;;;;14.00;10.55;;;13.30;92.30;;;;;;5022298;28;20037;-73
2021/04/21 06:08:16;;;;;;;26.20;9.90;;;14.50;90.30;;;;;;5019012;28;20042;-71
2021/04/21 06:10:42;;;;;;;15.88;9.43;;;15.60;85.20;;;;;;5021599;28;20084;-71
2021/04/21 06:13:10;;;;;;;13.20;8.40;;;16.80;81.90;;;;;;5024180;28;20045;-72
2021/04/21 06:15:39;;;;;;;10.23;8.68;;;17.90;76.20;;;;;;5020895;28;20065;-71
2021/04/21 06:18:09;;;;;;;12.20;8.52;;;18.80;70.60;;;;;;5023962;28;20125;-71
2021/04/21 06:20:39;;;;;;;11.02;9.68;;;19.90;65.30;;;;;;5035434;28;20057;-72
2021/04/21 06:23:08;;;;;;;10.00;8.40;;;20.80;60.70;;;;;;5022083;28;20045;-72
2021/04/21 06:25:34;;;;;;;9.48;8.43;;;21.60;57.50;;;;;;5024667;28;20040;-72
2021/04/21 06:28:22;;;;;;;13.57;8.10;;;22.00;55.50;;;;;;5023124;28;20041;-72
2021/04/21 06:31:01;;;;;;;10.85;8.63;;;22.80;50.90;;;;;;5021080;28;20061;-71
2021/04/21 06:33:41;;;;;;;11.35;7.00;;;23.30;50.40;;;;;;5021817;28;20066;-72
2021/04/21 06:36:08;;;;;;;9.80;7.47;;;23.20;47.30;;;;;;5021993;28;20053;-71
2021/04/21 06:38:36;;;;;;;12.50;8.00;;;23.20;49.10;;;;;;5017286;28;20049;-71
2021/04/21 06:41:02;;;;;;;9.57;7.70;;;23.10;49.40;;;;;;5010882;28;20125;-71
2021/04/21 06:43:33;;;;;;;9.30;7.97;;;22.50;49.60;;;;;;5010865;28;20096;-72
2021/04/21 06:45:59;;;;;;;13.43;9.02;;;22.00;50.80;;;;;;5010021;28;20046;-72
2021/04/21 06:48:29;;;;;;;14.45;10.98;;;20.50;50.80;;;;;;5009472;28;20041;-71
2021/04/21 06:51:05;;;;;;;12.80;11.05;;;19.80;53.50;;;;;;5009803;28;20139;-71
2021/04/21 06:53:42;;;;;;;11.60;9.32;;;18.70;56.50;;;;;;5008652;28;20049;-71
2021/04/21 06:56:08;;;;;;;13.93;11.50;;;18.40;60.20;;;;;;5007738;28;20410;-71
2021/04/21 06:58:37;;;;;;;13.98;11.85;;;17.90;59.50;;;;;;5005472;28;20160;-71
2021/04/21 07:01:24;;;;;;;15.07;12.25;;;17.80;62.60;;;;;;5008391;28;20049;-71
2021/04/21 07:03:51;;;;;;;14.80;12.90;;;17.20;64.20;;;;;;5009260;28;20048;-71
2021/04/21 07:06:18;;;;;;;20.02;14.23;;;17.00;68.20;;;;;;5007450;28;20045;-71
2021/04/21 07:08:44;;;;;;;17.10;13.98;;;16.70;68.90;;;;;;5011330;28;20047;-71
2021/04/21 07:11:11;;;;;;;17.30;15.23;;;16.30;71.30;;;;;;5012335;28;20492;-70
2021/04/21 07:13:42;;;;;;;16.80;14.73;;;15.80;76.00;;;;;;5009182;28;20045;-70
2021/04/21 07:16:24;;;;;;;20.83;15.80;;;15.20;80.60;;;;;;5012178;28;20049;-70
2021/04/21 07:18:58;;;;;;;20.67;16.88;;;14.80;83.30;;;;;;5010625;28;20046;-71
2021/04/21 07:21:26;;;;;;;22.35;17.80;;;14.40;85.00;;;;;;5008595;28;20045;-71
2021/04/21 07:23:58;;;;;;;22.98;18.77;;;14.10;88.60;;;;;;5009690;28;20048;-71
2021/04/21 07:26:33;;;;;;;24.83;19.02;;;14.20;90.30;;;;;;5008171;28;20045;-71
2021/04/21 07:28:59;;;;;;;27.30;20.45;;;13.80;91.00;;;;;;5012240;28;20042;-70
2021/04/21 07:31:26;;;;;;;30.02;23.70;;;13.70;91.30;;;;;;5013293;28;20454;-71
2021/04/21 07:33:52;;;;;;;31.35;23.02;;;13.30;92.00;;;;;;5015608;28;20041;-70
2021/04/21 07:36:23;;;;;;;28.95;23.90;;;12.90;92.80;;;;;;5014610;28;20841;-70
2021/04/21 07:38:55;;;;;;;28.38;23.42;;;12.80;93.40;;;;;;5014432;28;20059;-71
2021/04/21 07:41:39;;;;;;;24.75;21.80;;;12.50;94.50;;;;;;5014542;28;20042;-71
2021/04/21 07:44:24;;;;;;;29.42;23.80;;;12.40;94.40;;;;;;5013532;28;20063;-71
2021/04/21 07:47:13;;;;;;;32.90;23.65;;;12.20;94.50;;;;;;5013031;28;20045;-70
2021/04/21 07:49:40;;;;;;;;;;;12.00;95.20;;;;;;5013690;28;21164;-71
2021/04/21 07:52:07;;;;;;;38.75;24.65;;;11.80;95.50;;;;;;5009796;28;19928;-71
2021/04/21 07:54:33;;;;;;;31.58;24.30;;;11.60;96.40;;;;;;5013294;28;20487;-70
2021/04/21 07:57:03;;;;;;;32.75;24.25;;;11.60;96.00;;;;;;5014588;28;20045;-70
2021/04/21 07:59:55;;;;;;;27.83;22.70;;;11.60;96.10;;;;;;5016582;28;20041;-71
2021/04/21 08:02:30;;;;;;;30.48;22.30;;;11.40;96.40;;;;;;5012665;28;20499;-70
2021/04/21 08:05:16;;;;;;;33.85;24.13;;;11.60;96.50;;;;;;4992152;28;20073;-70
2021/04/21 08:07:43;;;;;;;34.58;23.92;;;11.60;95.90;;;;;;5010586;28;20056;-70
2021/04/21 08:10:24;;;;;;;34.03;26.77;;;11.60;96.00;;;;;;5010774;28;20859;-70
2021/04/21 08:12:52;;;;;;;28.50;23.17;;;11.40;96.30;;;;;;5014959;28;20487;-70
2021/04/21 08:15:19;;;;;;;31.77;23.77;;;11.30;96.10;;;;;;5013097;28;20052;-70
2021/04/21 08:17:56;;;;;;;37.42;25.23;;;11.50;97.10;;;;;;5010568;28;20079;-70
2021/04/21 08:20:26;;;;;;;38.92;24.48;;;11.60;96.80;;;;;;5013900;28;20740;-70
2021/04/21 08:22:57;;;;;;;35.85;24.73;;;11.60;96.50;;;;;;5014045;28;20099;-70
2021/04/21 08:25:23;;;;;;;29.92;23.45;;;11.50;96.40;;;;;;5010089;28;20107;-70
2021/04/21 08:27:50;;;;;;;39.63;23.60;;;11.70;96.80;;;;;;5011729;28;20049;-71
2021/04/21 08:30:16;;;;;;;33.78;24.45;;;11.80;96.70;;;;;;5014041;28;20053;-69
2021/04/21 08:32:42;;;;;;;33.80;25.20;;;11.80;96.40;;;;;;5013208;28;20033;-70
2021/04/21 08:35:09;;;;;;;35.13;25.98;;;11.90;96.70;;;;;;5012400;28;20667;-69
2021/04/21 08:37:36;;;;;;;39.20;26.27;;;12.00;96.60;;;;;;5012040;28;20859;-70
2021/04/21 08:40:04;;;;;;;36.15;25.83;;;11.80;96.20;;;;;;5008641;28;20049;-69
2021/04/21 08:42:31;;;;;;;42.58;26.80;;;11.60;96.50;;;;;;5013053;28;20072;-69
2021/04/21 08:44:57;;;;;;;51.20;28.85;;;11.50;97.00;;;;;;5014135;28;20049;-69
2021/04/21 08:47:25;;;;;;;47.47;29.80;;;11.50;97.20;;;;;;5011042;28;20037;-69
2021/04/21 08:49:54;;;;;;;43.15;28.70;;;11.20;97.20;;;;;;5012498;28;20087;-68
2021/04/21 08:52:23;;;;;;;42.78;26.30;;;11.00;97.50;;;;;;5007760;28;20040;-70
2021/04/21 08:54:53;;;;;;;40.42;26.35;;;10.80;98.10;;;;;;5013047;28;20505;-69
2021/04/21 08:57:20;;;;;;;44.70;25.73;;;10.60;98.00;;;;;;5013588;28;20041;-70
2021/04/21 08:59:46;;;;;;;45.00;25.80;;;10.50;98.20;;;;;;5016399;28;20069;-69
2021/04/21 09:02:15;;;;;;;38.90;26.38;;;10.40;98.20;;;;;;5014900;28;20625;-70
2021/04/21 09:04:44;;;;;;;38.88;25.77;;;10.30;98.40;;;;;;5011062;28;21908;-69
2021/04/21 09:07:13;;;;;;;42.05;26.25;;;10.20;98.80;;;;;;5010384;28;20038;-69
2021/04/21 09:09:39;;;;;;;38.90;25.50;;;10.00;99.10;;;;;;5010168;28;20848;-69
2021/04/21 09:12:07;;;;;;;33.50;25.02;;;10.00;99.00;;;;;;5010986;28;20442;-69
2021/04/21 09:14:33;;;;;;;36.60;22.70;;;10.00;98.90;;;;;;5013013;28;20483;-69
2021/04/21 09:16:59;;;;;;;32.35;19.73;;;10.10;99.20;;;;;;5023853;28;20044;-70
2021/04/21 09:19:25;;;;;;;23.23;17.70;;;10.10;99.00;;;;;;5005761;28;20073;-70
2021/04/21 09:22:08;;;;;;;25.83;17.13;;;10.30;98.60;;;;;;5008329;28;20062;-69
2021/04/21 09:24:37;;;;;;;26.15;17.30;;;10.40;98.30;;;;;;5008459;28;20041;-69
2021/04/21 09:27:24;;;;;;;25.00;16.25;;;10.60;98.30;;;;;;5011904;28;20045;-68
2021/04/21 09:29:50;;;;;;;24.67;16.63;;;10.60;97.80;;;;;;5011598;28;20663;-68
2021/04/21 09:32:17;;;;;;;18.23;12.93;;;10.60;97.70;;;;;;5010091;28;20053;-68
2021/04/21 09:34:54;;;;;;;21.15;13.45;;;10.60;97.40;;;;;;5010650;28;20053;-69
2021/04/21 09:37:25;;;;;;;27.00;12.40;;;10.70;97.30;;;;;;5010269;28;20399;-69
2021/04/21 09:39:51;;;;;;;13.38;8.52;;;10.70;96.40;;;;;;5008503;28;20041;-69
2021/04/21 09:42:26;;;;;;;12.10;8.35;;;10.70;95.10;;;;;;5007901;28;20138;-69
2021/04/21 09:44:52;;;;;;;11.87;8.80;;;10.80;95.00;;;;;;5009756;28;20037;-69
2021/04/21 09:47:20;;;;;;;10.50;7.68;;;10.80;95.60;;;;;;5013045;28;20037;-70
2021/04/21 09:49:47;;;;;;;13.40;7.05;;;11.00;95.20;;;;;;5010514;28;20091;-69
2021/04/21 09:52:12;;;;;;;9.77;5.47;;;11.00;94.70;;;;;;5010119;28;20053;-70
2021/04/21 09:54:45;;;;;;;7.95;5.50;;;11.00;93.50;;;;;;5009246;28;20123;-70
2021/04/21 09:57:14;;;;;;;9.48;4.40;;;11.10;93.50;;;;;;5012989;28;20219;-70
2021/04/21 09:59:41;;;;;;;12.30;6.20;;;11.20;92.20;;;;;;5029800;28;20042;-70
2021/04/21 10:02:31;;;;;;;8.07;5.97;;;11.30;93.40;;;;;;5011489;28;20128;-69
2021/04/21 10:04:57;;;;;;;9.05;4.82;;;11.40;93.80;;;;;;5002744;28;20092;-70
2021/04/21 10:07:23;;;;;;;9.95;4.40;;;11.50;93.70;;;;;;5009982;28;20124;-69
2021/04/21 10:09:57;;;;;;;8.30;4.03;;;11.60;93.50;;;;;;5006990;28;20467;-70
2021/04/21 10:12:28;;;;;;;4.40;2.40;;;11.70;93.70;;;;;;5008974;28;20054;-69
2021/04/21 10:15:14;;;;;;;3.10;1.73;;;11.90;93.20;;;;;;5008684;28;20037;-70
2021/04/21 10:17:45;;;;;;;3.92;1.20;;;11.70;90.50;;;;;;5010317;28;21509;-69
2021/04/21 10:20:13;;;;;;;3.75;1.00;;;11.50;90.70;;;;;;5010394;28;20172;-70
2021/04/21 10:22:41;;;;;;;3.67;1.23;;;11.40;91.00;;;;;;5009958;28;20052;-70
2021/04/21 10:25:08;;;;;;;7.20;1.60;;;11.20;91.20;;;;;;5011069;28;20044;-69
2021/04/21 10:27:35;;;;;;;5.43;1.10;;;11.30;91.50;;;;;;5011313;28;20038;-70
2021/04/21 10:30:02;;;;;;;3.08;0.70;;;11.30;91.00;;;;;;5010911;28;20049;-70
2021/04/21 10:32:29;;;;;;;2.70;1.00;;;11.60;90.20;;;;;;5011777;28;20050;-69
2021/04/21 10:34:55;;;;;;;3.85;0.85;;;11.90;90.40;;;;;;5010001;28;20356;-70
2021/04/21 10:37:21;;;;;;;7.00;1.00;;;12.00;89.40;;;;;;5009245;28;20094;-69
2021/04/21 10:39:53;;;;;;;4.75;0.90;;;12.20;90.30;;;;;;5006681;28;20050;-70
2021/04/21 10:42:20;;;;;;;6.35;1.63;;;11.90;88.70;;;;;;5009411;28;20365;-70
2021/04/21 10:44:47;;;;;;;4.03;0.80;;;11.80;90.00;;;;;;5004541;28;20049;-69
2021/04/21 10:47:18;;;;;;;4.72;1.10;;;11.90;90.20;;;;;;5009057;28;20041;-69
2021/04/21 10:50:09;;;;;;;8.23;1.52;;;12.00;90.30;;;;;;5008906;28;20080;-69
2021/04/21 10:52:38;;;;;;;5.43;0.88;;;12.00;90.70;;;;;;5009016;28;20069;-70
2021/04/21 10:55:07;;;;;;;9.18;1.58;;;11.90;88.30;;;;;;5010074;28;20127;-70
2021/04/21 10:57:57;;;;;;;10.20;0.88;;;12.10;91.20;;;;;;5011105;28;20092;-69
2021/04/21 11:00:30;;;;;;;8.50;1.35;;;12.40;90.60;;;;;;5004736;28;20049;-70
2021/04/21 11:03:03;;;;;;;11.35;1.02;;;12.80;90.30;;;;;;5013194;28;20045;-69
2021/04/21 11:05:40;;;;;;;7.32;1.35;;;13.00;87.10;;;;;;5014805;28;20059;-69
2021/04/21 11:08:23;;;;;;;3.85;0.77;;;13.00;84.20;;;;;;5013792;28;20048;-70
2021/04/21 11:10:54;;;;;;;5.30;0.63;;;12.80;82.70;;;;;;5013548;28;20049;-70
2021/04/21 11:13:36;;;;;;;6.35;1.73;;;12.60;77.20;;;;;;5016598;28;20282;-70
2021/04/21 11:16:05;;;;;;;11.23;1.70;;;12.80;82.50;;;;;;5013586;28;20549;-69
2021/04/21 11:18:33;;;;;;;10.05;1.20;;;13.00;83.20;;;;;;5013191;28;20037;-70
2021/04/21 11:21:01;;;;;;;11.05;1.77;;;12.90;80.10;;;;;;5011845;28;20037;-69
2021/04/21 11:26:24;;;;;;;12.77;2.00;;;13.10;85.70;;;;;;5013348;28;20033;-69
2021/04/21 11:29:00;;;;;;;12.70;2.13;;;13.30;85.60;;;;;;5015312;28;20042;-70
2021/04/21 11:31:44;;;;;;;13.93;2.60;;;13.60;85.10;;;;;;5013061;28;20068;-69
2021/04/21 11:34:22;;;;;;;11.90;2.70;;;13.80;83.80;;;;;;5014684;28;20033;-70
2021/04/21 11:36:50;;;;;;;7.75;2.30;;;13.90;83.10;;;;;;5012850;28;21917;-69
2021/04/21 11:39:39;;;;;;;10.45;1.73;;;13.80;81.70;;;;;;5013760;28;20033;-70
2021/04/21 11:42:34;;;;;;;15.68;3.50;;;13.80;79.20;;;;;;5015324;28;20050;-70
2021/04/21 11:45:11;;;;;;;9.38;2.17;;;13.50;77.40;;;;;;5011766;28;20037;-70
2021/04/21 11:47:41;;;;;;;12.82;2.00;;;13.10;74.80;;;;;;5014917;28;20041;-69
2021/04/21 11:50:24;;;;;;;11.45;1.63;;;13.00;77.00;;;;;;5012400;28;20052;-70
2021/04/21 11:52:53;;;;;;;13.52;1.95;;;12.90;78.60;;;;;;5010519;28;20077;-70
2021/04/21 11:55:28;;;;;;;7.60;1.73;;;12.90;80.30;;;;;;5013699;28;20049;-70
2021/04/21 11:57:59;;;;;;;9.27;1.97;;;12.60;76.90;;;;;;5011851;28;20341;-69
2021/04/21 12:00:30;;;;;;;9.80;1.77;;;12.40;76.30;;;;;;5008383;28;20137;-69
2021/04/21 12:02:59;;;;;;;9.57;2.00;;;12.30;76.00;;;;;;5009310;28;20050;-69
2021/04/21 12:05:28;;;;;;;15.20;2.35;;;12.50;79.40;;;;;;5013006;28;20033;-68
2021/04/21 12:07:56;;;;;;;11.98;2.78;;;12.80;82.00;;;;;;5012806;28;20065;-69
2021/04/21 12:10:22;;;;;;;14.18;2.55;;;12.90;80.40;;;;;;5011960;28;20140;-69
2021/04/21 12:12:48;;;;;;;12.90;2.35;;;13.00;79.70;;;;;;5013886;28;20051;-69
2021/04/21 12:15:16;;;;;;;17.35;3.15;;;13.00;79.50;;;;;;5013979;28;20041;-68
2021/04/21 12:17:54;;;;;;;19.63;2.55;;;12.80;78.20;;;;;;5012991;28;20056;-68
2021/04/21 12:20:29;;;;;;;9.65;1.55;;;12.80;79.30;;;;;;5008844;28;20415;-68
2021/04/21 12:22:56;;;;;;;10.57;1.98;;;12.40;76.70;;;;;;5010973;28;20037;-68
2021/04/21 12:25:25;;;;;;;12.52;2.35;;;12.10;76.40;;;;;;5008127;28;20095;-68
2021/04/21 12:27:55;;;;;;;17.23;2.45;;;12.00;79.40;;;;;;5007730;28;20112;-68
2021/04/21 12:30:24;;;;;;;9.90;2.17;;;11.90;76.10;;;;;;5008818;28;20827;-68
2021/04/21 12:32:52;;;;;;;10.60;1.60;;;11.90;78.80;;;;;;5009437;28;20033;-68
2021/04/21 12:35:23;;;;;;;16.83;2.70;;;12.10;80.80;;;;;;5012369;28;20164;-68
2021/04/21 12:37:57;;;;;;;12.43;2.55;;;11.90;76.50;;;;;;5011229;28;20149;-68
2021/04/21 12:40:29;;;;;;;10.23;2.35;;;11.90;76.70;;;;;;5011129;28;20052;-68
2021/04/21 12:43:28;;;;;;;19.55;2.03;;;11.70;76.20;;;;;;5013093;28;20049;-68
2021/04/21 12:46:09;;;;;;;9.52;1.90;;;12.00;79.00;;;;;;4990232;28;20061;-68
2021/04/21 12:48:35;;;;;;;12.48;2.40;;;12.50;80.10;;;;;;5013706;28;20041;-68
2021/04/21 12:51:00;;;;;;;13.68;1.88;;;12.90;76.80;;;;;;5012492;28;20777;-68
2021/04/21 12:53:33;;;;;;;12.13;2.13;;;13.20;78.40;;;;;;5012108;28;20061;-68
2021/04/21 12:56:10;;;;;;;9.70;2.20;;;13.40;73.70;;;;;;5010673;28;20724;-68
2021/04/21 12:58:38;;;;;;;5.53;1.20;;;13.50;72.10;;;;;;5018360;28;20033;-69
2021/04/21 13:01:13;;;;;;;11.82;2.42;;;13.00;64.70;;;;;;5014247;28;20128;-68
2021/04/21 13:03:54;;;;;;;8.50;1.75;;;12.70;66.50;;;;;;5013657;28;20166;-68
2021/04/21 13:06:40;;;;;;;10.02;2.10;;;12.20;71.50;;;;;;5013080;28;20045;-69
2021/04/21 13:09:11;;;;;;;11.70;1.67;;;12.70;71.70;;;;;;5011967;28;20128;-68
2021/04/21 13:11:39;;;;;;;12.95;2.95;;;12.20;70.00;;;;;;5013933;28;20382;-68
2021/04/21 13:14:07;;;;;;;12.57;2.75;;;12.60;77.30;;;;;;5012030;28;20045;-68
2021/04/21 13:16:38;;;;;;;8.48;2.10;;;13.00;76.10;;;;;;5013437;28;20107;-68
2021/04/21 13:19:20;;;;;;;14.43;3.15;;;13.00;69.60;;;;;;5011648;28;21139;-68